sensor_id;sensor_type;location;lat;lon;timestamp;P1;durP1;ratioP1;P2;durP2;ratioP2
25915;SDS011;13719;48.188;11.618;2023-08-24T00:01:19;8.55;;;4.55;;
25915;SDS011;13719;48.188;11.618;2023-08-24T00:03:48;5.63;;;4.25;;
25915;SDS011;13719;48.188;11.618;2023-08-24T00:06:16;6.85;;;4.72;;
25915;SDS011;13719;48.188;11.618;2023-08-24T00:08:44;6.65;;;4.20;;
25915;SDS011;13719;48.188;11.618;2023-08-24T00:11:13;5.43;;;3.88;;
25915;SDS011;13719;48.188;11.618;2023-08-24T00:13:43;8.77;;;4.45;;
25915;SDS011;13719;48.188;11.618;2023-08-24T00:16:15;7.63;;;4.53;;
25915;SDS011;13719;48.188;11.618;2023-08-24T00:18:43;8.40;;;4.35;;
25915;SDS011;13719;48.188;11.618;2023-08-24T00:21:12;6.18;;;4.68;;
25915;SDS011;13719;48.188;11.618;2023-08-24T00:23:43;8.32;;;4.15;;
25915;SDS011;13719;48.188;11.618;2023-08-24T00:26:11;6.57;;;3.97;;
25915;SDS011;13719;48.188;11.618;2023-08-24T00:28:40;7.00;;;4.68;;
25915;SDS011;13719;48.188;11.618;2023-08-24T00:31:09;7.28;;;4.40;;
25915;SDS011;13719;48.188;11.618;2023-08-24T00:33:38;6.47;;;4.25;;
25915;SDS011;13719;48.188;11.618;2023-08-24T00:36:07;5.97;;;3.75;;
25915;SDS011;13719;48.188;11.618;2023-08-24T00:38:35;6.65;;;4.50;;
25915;SDS011;13719;48.188;11.618;2023-08-24T00:41:04;6.03;;;4.38;;
25915;SDS011;13719;48.188;11.618;2023-08-24T00:43:32;6.90;;;4.75;;
25915;SDS011;13719;48.188;11.618;2023-08-24T00:46:02;7.30;;;4.68;;
25915;SDS011;13719;48.188;11.618;2023-08-24T00:48:32;6.75;;;4.60;;
25915;SDS011;13719;48.188;11.618;2023-08-24T00:51:01;6.68;;;4.43;;
25915;SDS011;13719;48.188;11.618;2023-08-24T00:53:29;8.00;;;4.75;;
25915;SDS011;13719;48.188;11.618;2023-08-24T00:55:58;9.90;;;4.53;;
25915;SDS011;13719;48.188;11.618;2023-08-24T00:58:27;8.98;;;4.78;;
25915;SDS011;13719;48.188;11.618;2023-08-24T01:00:56;7.85;;;4.63;;
25915;SDS011;13719;48.188;11.618;2023-08-24T01:03:24;6.40;;;4.60;;
25915;SDS011;13719;48.188;11.618;2023-08-24T01:05:54;7.60;;;4.70;;
25915;SDS011;13719;48.188;11.618;2023-08-24T01:08:23;6.93;;;4.80;;
25915;SDS011;13719;48.188;11.618;2023-08-24T01:10:53;8.65;;;4.97;;
25915;SDS011;13719;48.188;11.618;2023-08-24T01:13:27;6.97;;;5.07;;
25915;SDS011;13719;48.188;11.618;2023-08-24T01:16:00;6.10;;;4.38;;
25915;SDS011;13719;48.188;11.618;2023-08-24T01:18:32;8.75;;;4.70;;
25915;SDS011;13719;48.188;11.618;2023-08-24T01:21:04;6.00;;;4.88;;
25915;SDS011;13719;48.188;11.618;2023-08-24T01:23:35;7.00;;;4.97;;
25915;SDS011;13719;48.188;11.618;2023-08-24T01:26:07;6.40;;;4.68;;
25915;SDS011;13719;48.188;11.618;2023-08-24T01:28:36;8.05;;;4.80;;
25915;SDS011;13719;48.188;11.618;2023-08-24T01:31:05;10.40;;;4.55;;
25915;SDS011;13719;48.188;11.618;2023-08-24T01:33:34;6.68;;;5.03;;
25915;SDS011;13719;48.188;11.618;2023-08-24T01:36:02;7.35;;;4.78;;
25915;SDS011;13719;48.188;11.618;2023-08-24T01:38:31;6.90;;;4.85;;
25915;SDS011;13719;48.188;11.618;2023-08-24T01:41:02;6.95;;;4.93;;
25915;SDS011;13719;48.188;11.618;2023-08-24T01:43:33;10.15;;;5.53;;
25915;SDS011;13719;48.188;11.618;2023-08-24T01:46:09;8.30;;;4.80;;
25915;SDS011;13719;48.188;11.618;2023-08-24T01:48:39;7.93;;;4.90;;
25915;SDS011;13719;48.188;11.618;2023-08-24T01:51:08;11.38;;;5.10;;
25915;SDS011;13719;48.188;11.618;2023-08-24T01:53:37;5.90;;;4.22;;
25915;SDS011;13719;48.188;11.618;2023-08-24T01:56:09;8.30;;;4.75;;
25915;SDS011;13719;48.188;11.618;2023-08-24T01:58:39;10.00;;;4.93;;
25915;SDS011;13719;48.188;11.618;2023-08-24T02:01:08;8.10;;;5.45;;
25915;SDS011;13719;48.188;11.618;2023-08-24T02:03:39;8.07;;;5.43;;
25915;SDS011;13719;48.188;11.618;2023-08-24T02:06:07;10.85;;;5.20;;
25915;SDS011;13719;48.188;11.618;2023-08-24T02:08:36;7.95;;;5.47;;
25915;SDS011;13719;48.188;11.618;2023-08-24T02:11:04;10.20;;;4.78;;
25915;SDS011;13719;48.188;11.618;2023-08-24T02:13:33;8.05;;;5.05;;
25915;SDS011;13719;48.188;11.618;2023-08-24T02:16:03;8.48;;;5.25;;
25915;SDS011;13719;48.188;11.618;2023-08-24T02:18:32;9.20;;;4.85;;
25915;SDS011;13719;48.188;11.618;2023-08-24T02:21:01;9.02;;;5.03;;
25915;SDS011;13719;48.188;11.618;2023-08-24T02:23:35;7.85;;;5.40;;
25915;SDS011;13719;48.188;11.618;2023-08-24T02:26:03;9.20;;;5.20;;
25915;SDS011;13719;48.188;11.618;2023-08-24T02:28:32;7.82;;;4.78;;
25915;SDS011;13719;48.188;11.618;2023-08-24T02:31:00;6.80;;;5.07;;
25915;SDS011;13719;48.188;11.618;2023-08-24T02:33:30;9.00;;;5.60;;
25915;SDS011;13719;48.188;11.618;2023-08-24T02:35:59;9.45;;;5.18;;
25915;SDS011;13719;48.188;11.618;2023-08-24T02:38:27;9.70;;;5.20;;
25915;SDS011;13719;48.188;11.618;2023-08-24T02:41:02;7.65;;;5.43;;
25915;SDS011;13719;48.188;11.618;2023-08-24T02:45:59;8.27;;;5.05;;
25915;SDS011;13719;48.188;11.618;2023-08-24T02:48:31;10.75;;;5.18;;
25915;SDS011;13719;48.188;11.618;2023-08-24T02:51:00;12.43;;;5.72;;
25915;SDS011;13719;48.188;11.618;2023-08-24T02:53:29;7.55;;;4.95;;
25915;SDS011;13719;48.188;11.618;2023-08-24T02:55:58;6.53;;;5.20;;
25915;SDS011;13719;48.188;11.618;2023-08-24T02:58:26;8.23;;;4.80;;
25915;SDS011;13719;48.188;11.618;2023-08-24T03:00:54;8.90;;;5.25;;
25915;SDS011;13719;48.188;11.618;2023-08-24T03:03:23;8.82;;;5.70;;
25915;SDS011;13719;48.188;11.618;2023-08-24T03:05:57;7.95;;;5.05;;
25915;SDS011;13719;48.188;11.618;2023-08-24T03:08:26;7.43;;;5.63;;
25915;SDS011;13719;48.188;11.618;2023-08-24T03:10:54;9.55;;;6.00;;
25915;SDS011;13719;48.188;11.618;2023-08-24T03:13:22;9.38;;;5.65;;
25915;SDS011;13719;48.188;11.618;2023-08-24T03:15:51;9.73;;;5.35;;
25915;SDS011;13719;48.188;11.618;2023-08-24T03:18:20;11.68;;;5.72;;
25915;SDS011;13719;48.188;11.618;2023-08-24T03:20:48;17.73;;;5.47;;
25915;SDS011;13719;48.188;11.618;2023-08-24T03:23:18;8.40;;;5.65;;
25915;SDS011;13719;48.188;11.618;2023-08-24T03:25:47;8.20;;;5.43;;
25915;SDS011;13719;48.188;11.618;2023-08-24T03:28:15;8.63;;;5.43;;
25915;SDS011;13719;48.188;11.618;2023-08-24T03:30:47;11.57;;;5.28;;
25915;SDS011;13719;48.188;11.618;2023-08-24T03:33:15;6.95;;;5.20;;
25915;SDS011;13719;48.188;11.618;2023-08-24T03:35:43;8.40;;;5.45;;
25915;SDS011;13719;48.188;11.618;2023-08-24T03:38:12;8.23;;;5.93;;
25915;SDS011;13719;48.188;11.618;2023-08-24T03:40:42;13.82;;;5.70;;
25915;SDS011;13719;48.188;11.618;2023-08-24T03:43:10;8.30;;;5.43;;
25915;SDS011;13719;48.188;11.618;2023-08-24T03:45:39;10.20;;;5.32;;
25915;SDS011;13719;48.188;11.618;2023-08-24T03:48:07;16.40;;;6.60;;
25915;SDS011;13719;48.188;11.618;2023-08-24T03:50:36;8.60;;;5.63;;
25915;SDS011;13719;48.188;11.618;2023-08-24T03:53:04;9.02;;;6.25;;
25915;SDS011;13719;48.188;11.618;2023-08-24T03:55:32;13.45;;;6.47;;
25915;SDS011;13719;48.188;11.618;2023-08-24T03:58:02;11.13;;;6.35;;
25915;SDS011;13719;48.188;11.618;2023-08-24T04:00:31;10.35;;;5.53;;
25915;SDS011;13719;48.188;11.618;2023-08-24T04:02:59;8.52;;;6.18;;
25915;SDS011;13719;48.188;11.618;2023-08-24T04:05:28;8.13;;;5.60;;
25915;SDS011;13719;48.188;11.618;2023-08-24T04:07:57;11.43;;;6.18;;
25915;SDS011;13719;48.188;11.618;2023-08-24T04:10:26;11.07;;;6.30;;
25915;SDS011;13719;48.188;11.618;2023-08-24T04:12:55;19.38;;;6.50;;
25915;SDS011;13719;48.188;11.618;2023-08-24T04:15:24;14.25;;;8.07;;
25915;SDS011;13719;48.188;11.618;2023-08-24T04:17:53;12.82;;;6.95;;
25915;SDS011;13719;48.188;11.618;2023-08-24T04:20:23;16.23;;;7.57;;
25915;SDS011;13719;48.188;11.618;2023-08-24T04:22:51;13.25;;;7.40;;
25915;SDS011;13719;48.188;11.618;2023-08-24T04:25:20;11.00;;;7.05;;
25915;SDS011;13719;48.188;11.618;2023-08-24T04:27:48;9.63;;;6.10;;
25915;SDS011;13719;48.188;11.618;2023-08-24T04:30:17;14.35;;;6.32;;
25915;SDS011;13719;48.188;11.618;2023-08-24T04:32:47;8.60;;;6.40;;
25915;SDS011;13719;48.188;11.618;2023-08-24T04:35:15;8.32;;;5.53;;
25915;SDS011;13719;48.188;11.618;2023-08-24T04:37:43;8.63;;;5.90;;
25915;SDS011;13719;48.188;11.618;2023-08-24T04:40:11;10.68;;;5.55;;
25915;SDS011;13719;48.188;11.618;2023-08-24T04:42:39;12.75;;;6.32;;
25915;SDS011;13719;48.188;11.618;2023-08-24T04:45:07;10.07;;;5.90;;
25915;SDS011;13719;48.188;11.618;2023-08-24T04:47:36;9.15;;;6.18;;
25915;SDS011;13719;48.188;11.618;2023-08-24T04:50:07;8.68;;;5.50;;
25915;SDS011;13719;48.188;11.618;2023-08-24T04:52:35;11.63;;;6.47;;
25915;SDS011;13719;48.188;11.618;2023-08-24T04:55:04;10.32;;;5.57;;
25915;SDS011;13719;48.188;11.618;2023-08-24T04:57:33;10.75;;;5.80;;
25915;SDS011;13719;48.188;11.618;2023-08-24T05:00:01;13.10;;;5.65;;
25915;SDS011;13719;48.188;11.618;2023-08-24T05:02:31;10.82;;;6.25;;
25915;SDS011;13719;48.188;11.618;2023-08-24T05:05:00;8.38;;;5.93;;
25915;SDS011;13719;48.188;11.618;2023-08-24T05:07:30;9.18;;;5.78;;
25915;SDS011;13719;48.188;11.618;2023-08-24T05:09:58;9.50;;;5.65;;
25915;SDS011;13719;48.188;11.618;2023-08-24T05:12:26;9.40;;;5.82;;
25915;SDS011;13719;48.188;11.618;2023-08-24T05:14:55;11.68;;;6.28;;
25915;SDS011;13719;48.188;11.618;2023-08-24T05:17:24;13.35;;;6.80;;
25915;SDS011;13719;48.188;11.618;2023-08-24T05:19:54;9.30;;;5.97;;
25915;SDS011;13719;48.188;11.618;2023-08-24T05:22:22;7.43;;;5.53;;
25915;SDS011;13719;48.188;11.618;2023-08-24T05:24:52;9.98;;;5.45;;
25915;SDS011;13719;48.188;11.618;2023-08-24T05:27:20;11.80;;;6.03;;
25915;SDS011;13719;48.188;11.618;2023-08-24T05:29:49;13.77;;;6.13;;
25915;SDS011;13719;48.188;11.618;2023-08-24T05:32:17;8.70;;;5.78;;
25915;SDS011;13719;48.188;11.618;2023-08-24T05:34:45;9.30;;;5.97;;
25915;SDS011;13719;48.188;11.618;2023-08-24T05:37:14;8.10;;;5.75;;
25915;SDS011;13719;48.188;11.618;2023-08-24T05:39:42;9.75;;;5.60;;
25915;SDS011;13719;48.188;11.618;2023-08-24T05:42:12;10.50;;;5.60;;
25915;SDS011;13719;48.188;11.618;2023-08-24T05:44:41;8.02;;;5.38;;
25915;SDS011;13719;48.188;11.618;2023-08-24T05:47:09;10.07;;;5.32;;
25915;SDS011;13719;48.188;11.618;2023-08-24T05:49:38;14.32;;;5.45;;
25915;SDS011;13719;48.188;11.618;2023-08-24T05:52:06;17.08;;;5.82;;
25915;SDS011;13719;48.188;11.618;2023-08-24T05:54:35;10.13;;;5.43;;
25915;SDS011;13719;48.188;11.618;2023-08-24T05:57:04;7.82;;;5.70;;
25915;SDS011;13719;48.188;11.618;2023-08-24T05:59:34;10.70;;;5.10;;
25915;SDS011;13719;48.188;11.618;2023-08-24T06:02:02;11.20;;;5.90;;
25915;SDS011;13719;48.188;11.618;2023-08-24T06:04:31;11.43;;;5.72;;
25915;SDS011;13719;48.188;11.618;2023-08-24T06:06:59;12.20;;;5.72;;
25915;SDS011;13719;48.188;11.618;2023-08-24T06:09:29;10.00;;;5.25;;
25915;SDS011;13719;48.188;11.618;2023-08-24T06:11:58;8.15;;;5.40;;
25915;SDS011;13719;48.188;11.618;2023-08-24T06:14:26;10.18;;;6.13;;
25915;SDS011;13719;48.188;11.618;2023-08-24T06:16:56;10.00;;;6.00;;
25915;SDS011;13719;48.188;11.618;2023-08-24T06:19:24;16.35;;;8.00;;
25915;SDS011;13719;48.188;11.618;2023-08-24T06:21:52;17.30;;;6.97;;
25915;SDS011;13719;48.188;11.618;2023-08-24T06:24:21;12.80;;;5.97;;
25915;SDS011;13719;48.188;11.618;2023-08-24T06:26:49;13.52;;;6.38;;
25915;SDS011;13719;48.188;11.618;2023-08-24T06:29:18;11.00;;;6.57;;
25915;SDS011;13719;48.188;11.618;2023-08-24T06:31:46;12.40;;;6.22;;
25915;SDS011;13719;48.188;11.618;2023-08-24T06:34:16;17.38;;;7.47;;
25915;SDS011;13719;48.188;11.618;2023-08-24T06:36:44;13.18;;;6.72;;
25915;SDS011;13719;48.188;11.618;2023-08-24T06:39:13;15.43;;;7.18;;
25915;SDS011;13719;48.188;11.618;2023-08-24T06:41:42;13.40;;;7.18;;
25915;SDS011;13719;48.188;11.618;2023-08-24T06:44:10;14.05;;;6.50;;
25915;SDS011;13719;48.188;11.618;2023-08-24T06:46:38;15.05;;;7.53;;
25915;SDS011;13719;48.188;11.618;2023-08-24T06:49:07;15.13;;;6.50;;
25915;SDS011;13719;48.188;11.618;2023-08-24T06:51:37;14.98;;;6.40;;
25915;SDS011;13719;48.188;11.618;2023-08-24T06:54:06;23.35;;;7.63;;
25915;SDS011;13719;48.188;11.618;2023-08-24T06:56:34;11.73;;;6.82;;
25915;SDS011;13719;48.188;11.618;2023-08-24T06:59:02;12.55;;;7.05;;
25915;SDS011;13719;48.188;11.618;2023-08-24T07:01:31;12.18;;;6.45;;
25915;SDS011;13719;48.188;11.618;2023-08-24T07:04:00;14.43;;;6.85;;
25915;SDS011;13719;48.188;11.618;2023-08-24T07:06:29;10.68;;;6.30;;
25915;SDS011;13719;48.188;11.618;2023-08-24T07:08:59;9.15;;;6.07;;
25915;SDS011;13719;48.188;11.618;2023-08-24T07:11:29;14.18;;;6.63;;
25915;SDS011;13719;48.188;11.618;2023-08-24T07:13:57;11.85;;;6.25;;
25915;SDS011;13719;48.188;11.618;2023-08-24T07:16:26;13.40;;;6.45;;
25915;SDS011;13719;48.188;11.618;2023-08-24T07:18:54;16.27;;;6.35;;
25915;SDS011;13719;48.188;11.618;2023-08-24T07:21:22;10.60;;;5.85;;
25915;SDS011;13719;48.188;11.618;2023-08-24T07:23:51;13.93;;;6.50;;
25915;SDS011;13719;48.188;11.618;2023-08-24T07:26:21;10.75;;;6.13;;
25915;SDS011;13719;48.188;11.618;2023-08-24T07:28:51;11.63;;;5.80;;
25915;SDS011;13719;48.188;11.618;2023-08-24T07:31:20;10.63;;;5.80;;
25915;SDS011;13719;48.188;11.618;2023-08-24T07:33:49;11.48;;;6.22;;
25915;SDS011;13719;48.188;11.618;2023-08-24T07:36:17;7.55;;;5.55;;
25915;SDS011;13719;48.188;11.618;2023-08-24T07:38:46;9.40;;;5.68;;
25915;SDS011;13719;48.188;11.618;2023-08-24T07:41:14;9.73;;;5.65;;
25915;SDS011;13719;48.188;11.618;2023-08-24T07:43:46;11.48;;;5.57;;
25915;SDS011;13719;48.188;11.618;2023-08-24T07:46:14;8.00;;;5.60;;
25915;SDS011;13719;48.188;11.618;2023-08-24T07:48:42;8.88;;;5.10;;
25915;SDS011;13719;48.188;11.618;2023-08-24T07:51:11;11.15;;;5.75;;
25915;SDS011;13719;48.188;11.618;2023-08-24T07:53:39;8.10;;;5.57;;
25915;SDS011;13719;48.188;11.618;2023-08-24T07:56:08;13.93;;;5.85;;
25915;SDS011;13719;48.188;11.618;2023-08-24T07:58:36;9.55;;;5.60;;
25915;SDS011;13719;48.188;11.618;2023-08-24T08:01:06;7.53;;;5.22;;
25915;SDS011;13719;48.188;11.618;2023-08-24T08:03:35;11.65;;;6.18;;
25915;SDS011;13719;48.188;11.618;2023-08-24T08:06:03;9.93;;;5.55;;
25915;SDS011;13719;48.188;11.618;2023-08-24T08:08:32;10.05;;;5.85;;
25915;SDS011;13719;48.188;11.618;2023-08-24T08:11:01;10.45;;;5.35;;
25915;SDS011;13719;48.188;11.618;2023-08-24T08:13:30;10.57;;;5.20;;
25915;SDS011;13719;48.188;11.618;2023-08-24T08:16:01;7.88;;;5.38;;
25915;SDS011;13719;48.188;11.618;2023-08-24T08:18:32;10.55;;;5.65;;
25915;SDS011;13719;48.188;11.618;2023-08-24T08:21:01;10.18;;;5.55;;
25915;SDS011;13719;48.188;11.618;2023-08-24T08:23:30;9.65;;;6.07;;
25915;SDS011;13719;48.188;11.618;2023-08-24T08:25:58;8.10;;;5.00;;
25915;SDS011;13719;48.188;11.618;2023-08-24T08:28:26;18.33;;;6.00;;
25915;SDS011;13719;48.188;11.618;2023-08-24T08:30:55;9.75;;;5.68;;
25915;SDS011;13719;48.188;11.618;2023-08-24T08:33:23;7.72;;;5.90;;
25915;SDS011;13719;48.188;11.618;2023-08-24T08:35:53;8.68;;;5.43;;
25915;SDS011;13719;48.188;11.618;2023-08-24T08:38:21;11.15;;;5.70;;
25915;SDS011;13719;48.188;11.618;2023-08-24T08:40:53;12.63;;;6.25;;
25915;SDS011;13719;48.188;11.618;2023-08-24T08:43:22;11.93;;;5.70;;
25915;SDS011;13719;48.188;11.618;2023-08-24T08:45:50;9.75;;;6.07;;
25915;SDS011;13719;48.188;11.618;2023-08-24T08:48:19;9.88;;;5.50;;
25915;SDS011;13719;48.188;11.618;2023-08-24T08:50:48;8.95;;;5.85;;
25915;SDS011;13719;48.188;11.618;2023-08-24T08:53:21;8.82;;;5.85;;
25915;SDS011;13719;48.188;11.618;2023-08-24T08:55:50;9.35;;;6.07;;
25915;SDS011;13719;48.188;11.618;2023-08-24T08:58:19;12.18;;;6.38;;
25915;SDS011;13719;48.188;11.618;2023-08-24T09:00:48;10.23;;;6.05;;
25915;SDS011;13719;48.188;11.618;2023-08-24T09:03:17;8.07;;;5.60;;
25915;SDS011;13719;48.188;11.618;2023-08-24T09:05:46;11.13;;;5.63;;
25915;SDS011;13719;48.188;11.618;2023-08-24T09:08:15;10.73;;;6.22;;
25915;SDS011;13719;48.188;11.618;2023-08-24T09:10:45;6.50;;;5.35;;
25915;SDS011;13719;48.188;11.618;2023-08-24T09:13:14;9.68;;;6.07;;
25915;SDS011;13719;48.188;11.618;2023-08-24T09:15:43;7.50;;;5.50;;
25915;SDS011;13719;48.188;11.618;2023-08-24T09:18:11;7.80;;;5.25;;
25915;SDS011;13719;48.188;11.618;2023-08-24T09:20:40;8.38;;;5.60;;
25915;SDS011;13719;48.188;11.618;2023-08-24T09:23:17;11.85;;;5.80;;
25915;SDS011;13719;48.188;11.618;2023-08-24T09:25:47;9.45;;;5.88;;
25915;SDS011;13719;48.188;11.618;2023-08-24T09:28:22;12.45;;;4.85;;
25915;SDS011;13719;48.188;11.618;2023-08-24T09:30:54;9.50;;;5.32;;
25915;SDS011;13719;48.188;11.618;2023-08-24T09:33:22;8.98;;;5.55;;
25915;SDS011;13719;48.188;11.618;2023-08-24T09:35:52;8.55;;;6.03;;
25915;SDS011;13719;48.188;11.618;2023-08-24T09:38:22;11.40;;;6.20;;
25915;SDS011;13719;48.188;11.618;2023-08-24T09:40:52;8.65;;;5.28;;
25915;SDS011;13719;48.188;11.618;2023-08-24T09:43:21;8.60;;;5.53;;
25915;SDS011;13719;48.188;11.618;2023-08-24T09:45:50;8.15;;;5.63;;
25915;SDS011;13719;48.188;11.618;2023-08-24T09:48:19;10.57;;;5.35;;
25915;SDS011;13719;48.188;11.618;2023-08-24T09:50:48;10.10;;;5.53;;
25915;SDS011;13719;48.188;11.618;2023-08-24T09:53:17;11.70;;;5.57;;
25915;SDS011;13719;48.188;11.618;2023-08-24T09:55:48;8.05;;;5.60;;
25915;SDS011;13719;48.188;11.618;2023-08-24T09:58:18;9.02;;;5.70;;
25915;SDS011;13719;48.188;11.618;2023-08-24T10:00:47;10.43;;;4.85;;
25915;SDS011;13719;48.188;11.618;2023-08-24T10:03:17;14.85;;;5.68;;
25915;SDS011;13719;48.188;11.618;2023-08-24T10:05:47;8.35;;;5.45;;
25915;SDS011;13719;48.188;11.618;2023-08-24T10:08:27;10.73;;;5.18;;
25915;SDS011;13719;48.188;11.618;2023-08-24T10:10:56;14.05;;;5.85;;
25915;SDS011;13719;48.188;11.618;2023-08-24T10:13:29;6.60;;;4.88;;
25915;SDS011;13719;48.188;11.618;2023-08-24T10:15:58;8.27;;;5.00;;
25915;SDS011;13719;48.188;11.618;2023-08-24T10:18:27;8.68;;;4.97;;
25915;SDS011;13719;48.188;11.618;2023-08-24T10:20:56;7.63;;;4.80;;
25915;SDS011;13719;48.188;11.618;2023-08-24T10:23:25;7.70;;;5.28;;
25915;SDS011;13719;48.188;11.618;2023-08-24T10:25:55;8.60;;;4.63;;
25915;SDS011;13719;48.188;11.618;2023-08-24T10:28:24;8.88;;;4.90;;
25915;SDS011;13719;48.188;11.618;2023-08-24T10:30:54;6.68;;;4.75;;
25915;SDS011;13719;48.188;11.618;2023-08-24T10:33:23;7.90;;;4.85;;
25915;SDS011;13719;48.188;11.618;2023-08-24T10:35:52;5.75;;;4.57;;
25915;SDS011;13719;48.188;11.618;2023-08-24T10:38:24;10.80;;;4.90;;
25915;SDS011;13719;48.188;11.618;2023-08-24T10:40:53;7.10;;;4.75;;
25915;SDS011;13719;48.188;11.618;2023-08-24T10:43:22;6.28;;;4.75;;
25915;SDS011;13719;48.188;11.618;2023-08-24T10:45:55;8.82;;;4.80;;
25915;SDS011;13719;48.188;11.618;2023-08-24T10:48:24;11.07;;;6.43;;
25915;SDS011;13719;48.188;11.618;2023-08-24T10:53:40;10.10;;;5.50;;
25915;SDS011;13719;48.188;11.618;2023-08-24T10:56:12;7.13;;;5.32;;
25915;SDS011;13719;48.188;11.618;2023-08-24T10:58:41;9.73;;;4.63;;
25915;SDS011;13719;48.188;11.618;2023-08-24T11:01:17;5.40;;;4.15;;
25915;SDS011;13719;48.188;11.618;2023-08-24T11:03:48;7.30;;;4.50;;
25915;SDS011;13719;48.188;11.618;2023-08-24T11:06:17;10.40;;;4.38;;
25915;SDS011;13719;48.188;11.618;2023-08-24T11:08:47;8.65;;;4.47;;
25915;SDS011;13719;48.188;11.618;2023-08-24T11:11:19;6.65;;;4.13;;
25915;SDS011;13719;48.188;11.618;2023-08-24T11:16:41;8.57;;;3.83;;
25915;SDS011;13719;48.188;11.618;2023-08-24T11:19:11;5.38;;;3.67;;
25915;SDS011;13719;48.188;11.618;2023-08-24T11:21:40;4.78;;;3.55;;
25915;SDS011;13719;48.188;11.618;2023-08-24T11:24:09;6.13;;;3.70;;
25915;SDS011;13719;48.188;11.618;2023-08-24T11:26:41;6.70;;;3.85;;
25915;SDS011;13719;48.188;11.618;2023-08-24T11:29:10;11.57;;;3.95;;
25915;SDS011;13719;48.188;11.618;2023-08-24T11:31:39;6.85;;;4.40;;
25915;SDS011;13719;48.188;11.618;2023-08-24T11:34:14;12.88;;;4.95;;
25915;SDS011;13719;48.188;11.618;2023-08-24T11:36:42;5.78;;;4.28;;
25915;SDS011;13719;48.188;11.618;2023-08-24T11:39:14;4.55;;;3.90;;
25915;SDS011;13719;48.188;11.618;2023-08-24T11:41:44;7.72;;;3.88;;
25915;SDS011;13719;48.188;11.618;2023-08-24T11:44:12;7.70;;;3.67;;
25915;SDS011;13719;48.188;11.618;2023-08-24T11:46:56;7.88;;;4.13;;
25915;SDS011;13719;48.188;11.618;2023-08-24T11:49:26;7.88;;;3.70;;
25915;SDS011;13719;48.188;11.618;2023-08-24T11:51:54;9.70;;;4.00;;
25915;SDS011;13719;48.188;11.618;2023-08-24T11:54:23;14.55;;;3.90;;
25915;SDS011;13719;48.188;11.618;2023-08-24T11:56:52;6.00;;;4.03;;
25915;SDS011;13719;48.188;11.618;2023-08-24T11:59:21;6.03;;;4.20;;
25915;SDS011;13719;48.188;11.618;2023-08-24T12:01:49;6.05;;;3.58;;
25915;SDS011;13719;48.188;11.618;2023-08-24T12:04:20;5.88;;;3.65;;
25915;SDS011;13719;48.188;11.618;2023-08-24T12:06:48;8.65;;;3.70;;
25915;SDS011;13719;48.188;11.618;2023-08-24T12:09:16;9.18;;;3.67;;
25915;SDS011;13719;48.188;11.618;2023-08-24T12:11:45;4.57;;;3.88;;
25915;SDS011;13719;48.188;11.618;2023-08-24T12:14:16;9.43;;;4.05;;
25915;SDS011;13719;48.188;11.618;2023-08-24T12:16:45;7.68;;;4.25;;
25915;SDS011;13719;48.188;11.618;2023-08-24T12:19:16;6.80;;;3.70;;
25915;SDS011;13719;48.188;11.618;2023-08-24T12:21:46;9.45;;;4.10;;
25915;SDS011;13719;48.188;11.618;2023-08-24T12:24:14;8.15;;;4.60;;
25915;SDS011;13719;48.188;11.618;2023-08-24T12:26:42;5.25;;;3.33;;
25915;SDS011;13719;48.188;11.618;2023-08-24T12:29:11;7.07;;;3.63;;
25915;SDS011;13719;48.188;11.618;2023-08-24T12:31:41;9.25;;;3.88;;
25915;SDS011;13719;48.188;11.618;2023-08-24T12:34:13;10.85;;;4.72;;
25915;SDS011;13719;48.188;11.618;2023-08-24T12:36:42;5.80;;;3.53;;
25915;SDS011;13719;48.188;11.618;2023-08-24T12:39:12;7.88;;;3.95;;
25915;SDS011;13719;48.188;11.618;2023-08-24T12:41:41;6.65;;;3.47;;
25915;SDS011;13719;48.188;11.618;2023-08-24T12:44:10;5.57;;;3.58;;
25915;SDS011;13719;48.188;11.618;2023-08-24T12:46:41;6.68;;;3.53;;
25915;SDS011;13719;48.188;11.618;2023-08-24T12:49:09;10.40;;;3.55;;
25915;SDS011;13719;48.188;11.618;2023-08-24T12:51:37;10.15;;;3.03;;
25915;SDS011;13719;48.188;11.618;2023-08-24T12:54:07;13.65;;;3.70;;
25915;SDS011;13719;48.188;11.618;2023-08-24T12:56:39;8.40;;;3.53;;
25915;SDS011;13719;48.188;11.618;2023-08-24T12:59:08;8.35;;;3.40;;
25915;SDS011;13719;48.188;11.618;2023-08-24T13:01:36;8.88;;;2.47;;
25915;SDS011;13719;48.188;11.618;2023-08-24T13:04:04;6.07;;;2.92;;
25915;SDS011;13719;48.188;11.618;2023-08-24T13:06:33;7.55;;;3.08;;
25915;SDS011;13719;48.188;11.618;2023-08-24T13:09:01;9.90;;;3.65;;
25915;SDS011;13719;48.188;11.618;2023-08-24T13:11:31;13.52;;;3.40;;
25915;SDS011;13719;48.188;11.618;2023-08-24T13:14:01;14.65;;;3.80;;
25915;SDS011;13719;48.188;11.618;2023-08-24T13:16:30;8.63;;;3.00;;
25915;SDS011;13719;48.188;11.618;2023-08-24T13:18:58;10.32;;;3.05;;
25915;SDS011;13719;48.188;11.618;2023-08-24T13:21:26;9.95;;;3.45;;
25915;SDS011;13719;48.188;11.618;2023-08-24T13:23:55;9.88;;;3.30;;
25915;SDS011;13719;48.188;11.618;2023-08-24T13:26:23;7.10;;;3.00;;
25915;SDS011;13719;48.188;11.618;2023-08-24T13:28:52;9.13;;;2.85;;
25915;SDS011;13719;48.188;11.618;2023-08-24T13:31:21;7.78;;;3.08;;
25915;SDS011;13719;48.188;11.618;2023-08-24T13:33:50;9.15;;;3.08;;
25915;SDS011;13719;48.188;11.618;2023-08-24T13:36:18;7.45;;;3.60;;
25915;SDS011;13719;48.188;11.618;2023-08-24T13:38:47;10.32;;;3.40;;
25915;SDS011;13719;48.188;11.618;2023-08-24T13:41:16;5.22;;;3.25;;
25915;SDS011;13719;48.188;11.618;2023-08-24T13:43:44;9.88;;;3.70;;
25915;SDS011;13719;48.188;11.618;2023-08-24T13:46:13;6.68;;;2.80;;
25915;SDS011;13719;48.188;11.618;2023-08-24T13:48:42;7.63;;;3.28;;
25915;SDS011;13719;48.188;11.618;2023-08-24T13:51:11;7.18;;;3.28;;
25915;SDS011;13719;48.188;11.618;2023-08-24T13:53:41;4.28;;;2.85;;
25915;SDS011;13719;48.188;11.618;2023-08-24T13:56:10;10.32;;;3.13;;
25915;SDS011;13719;48.188;11.618;2023-08-24T13:58:38;6.40;;;3.38;;
25915;SDS011;13719;48.188;11.618;2023-08-24T14:01:06;8.63;;;3.35;;
25915;SDS011;13719;48.188;11.618;2023-08-24T14:03:37;6.15;;;3.13;;
25915;SDS011;13719;48.188;11.618;2023-08-24T14:06:07;12.13;;;3.42;;
25915;SDS011;13719;48.188;11.618;2023-08-24T14:08:35;5.75;;;3.38;;
25915;SDS011;13719;48.188;11.618;2023-08-24T14:11:04;5.45;;;3.08;;
25915;SDS011;13719;48.188;11.618;2023-08-24T14:13:32;11.98;;;3.60;;
25915;SDS011;13719;48.188;11.618;2023-08-24T14:16:01;5.20;;;3.67;;
25915;SDS011;13719;48.188;11.618;2023-08-24T14:18:30;8.65;;;3.22;;
25915;SDS011;13719;48.188;11.618;2023-08-24T14:20:58;6.63;;;3.10;;
25915;SDS011;13719;48.188;11.618;2023-08-24T14:23:28;6.32;;;3.38;;
25915;SDS011;13719;48.188;11.618;2023-08-24T14:25:57;5.90;;;2.88;;
25915;SDS011;13719;48.188;11.618;2023-08-24T14:28:25;12.18;;;3.58;;
25915;SDS011;13719;48.188;11.618;2023-08-24T14:31:14;6.03;;;2.90;;
25915;SDS011;13719;48.188;11.618;2023-08-24T14:33:42;4.93;;;3.17;;
25915;SDS011;13719;48.188;11.618;2023-08-24T14:36:10;7.15;;;3.70;;
25915;SDS011;13719;48.188;11.618;2023-08-24T14:38:40;9.35;;;3.75;;
25915;SDS011;13719;48.188;11.618;2023-08-24T14:41:09;12.60;;;4.20;;
25915;SDS011;13719;48.188;11.618;2023-08-24T14:43:38;11.98;;;4.60;;
25915;SDS011;13719;48.188;11.618;2023-08-24T14:46:06;7.53;;;3.33;;
25915;SDS011;13719;48.188;11.618;2023-08-24T14:48:35;8.38;;;3.20;;
25915;SDS011;13719;48.188;11.618;2023-08-24T14:51:04;6.15;;;3.28;;